Latest Weather Observations for Maroochydore

IDQ60901

Issued at 2:01 pm EST Sunday 14 February 2016 (issued every 10 minutes, with the page automatically refreshed every 10 minutes)

About weather observations | Map of Brisbane area stations | Latest observations for Brisbane area | Other Formats
Station Details ID: 040861 Name: SUNSHINE COAST AIRPORT Lat: -26.60 Lon: 153.09 Height: 3.3 m
Data from the previous 72 hours. | See also: Recent months at Maroochydore
Date/Time
EST
Tmp

°C
App
Tmp
°C
Dew
Point
°C
Rel
Hum
%
Delta-T

°C
Wind Press
QNH
hPa
Press
MSL
hPa
Rain
since
9 am
mm
Dir
 
Spd
km/h
Gust
km/h
Spd
kts
Gust
kts
14/02:00pm 28.7 27.3 20.4 60 5.5 SE 28 37 15 20 1006.7 - 0.0
14/01:30pm 29.4 28.9 21.4 62 5.4 SSE 26 37 14 20 1006.9 - 0.0
14/01:00pm 28.6 27.1 19.5 58 5.9 SSE 26 35 14 19 1007.0 - 0.0
14/12:30pm 28.3 26.8 20.3 62 5.3 SSE 28 35 15 19 1007.1 - 0.0
14/12:00pm 27.3 26.7 20.4 66 4.5 SSE 24 33 13 18 1007.4 1007.4 0.0
14/11:30am 28.4 29.3 21.9 68 4.4 S 20 28 11 15 1007.7 - 0.0
14/11:00am 27.0 26.9 19.9 65 4.6 S 20 28 11 15 1007.9 - 0.0
14/10:30am 27.0 26.0 19.6 64 4.8 S 24 35 13 19 1008.2 - 0.0
14/10:00am 26.9 25.4 19.5 64 4.8 S 26 33 14 18 1008.2 - 0.0
14/09:30am 26.3 24.9 18.7 63 4.9 S 24 35 13 19 1008.3 - 0.0
14/09:00am 25.7 24.2 18.6 65 4.5 S 24 37 13 20 1008.2 1008.2 17.0
14/08:30am 24.9 22.4 18.1 66 4.3 S 28 35 15 19 1008.0 - 17.0
14/08:00am 24.7 22.7 18.2 67 4.1 S 26 35 14 19 1008.1 - 17.0
14/07:30am 24.5 22.2 17.5 65 4.4 S 26 33 14 18 1008.0 - 17.0
14/07:00am 23.5 21.0 17.0 67 4.0 S 26 37 14 20 1007.8 - 17.0
14/06:30am 22.7 21.0 17.2 71 3.4 SSW 22 30 12 16 1007.6 - 17.0
14/06:00am 21.9 19.8 17.1 74 2.9 S 24 32 13 17 1007.5 1007.5 17.0
14/05:30am 21.7 20.3 17.1 75 2.8 S 20 30 11 16 1007.3 - 17.0
14/05:00am 21.7 20.0 17.3 76 2.7 S 22 35 12 19 1007.2 - 17.0
14/04:30am 21.9 19.9 17.5 76 2.7 SSW 24 35 13 19 1007.0 - 17.0
14/04:00am 21.6 20.6 17.6 78 2.5 SSW 19 24 10 13 1007.0 - 17.0
14/03:30am 21.7 20.7 17.5 77 2.6 SSW 19 26 10 14 1007.2 - 17.0
14/03:00am 21.7 20.1 17.5 77 2.6 SSW 22 33 12 18 1007.2 1007.2 17.0
14/02:30am 22.0 20.9 17.8 77 2.6 SSW 20 28 11 15 1007.3 - 17.0
14/02:00am 22.0 21.3 18.2 79 2.4 SSW 19 28 10 15 1007.5 - 17.0
14/01:30am 22.2 21.5 18.2 78 2.5 SSW 19 26 10 14 1007.8 - 17.0
14/01:00am 22.2 21.5 18.2 78 2.5 SSW 19 26 10 14 1008.2 - 17.0
14/12:30am 22.5 21.7 18.5 78 2.5 SSW 20 30 11 16 1008.6 - 17.0
14/12:00am 22.8 22.3 18.6 77 2.6 SSW 19 24 10 13 1008.9 1008.9 17.0
 
Date/Time
EST
Tmp

°C
App
Tmp
°C
Dew
Point
°C
Rel
Hum
%
Delta-T

°C
Wind Press
QNH
hPa
Press
MSL
hPa
Rain
since
9 am
mm
Dir
 
Spd
km/h
Gust
km/h
Spd
kts
Gust
kts
13/11:30pm 23.0 23.0 19.0 78 2.5 SSW 17 22 9 12 1009.2 - 17.0
13/11:00pm 23.2 22.7 18.7 76 2.8 S 19 22 10 12 1009.4 - 17.0
13/10:30pm 23.5 23.3 18.6 74 3.1 SSW 17 20 9 11 1009.7 - 17.0
13/10:00pm 24.1 22.7 18.7 72 3.4 S 24 41 13 22 1009.7 - 17.0
13/09:30pm 24.1 22.3 18.7 72 3.4 S 26 43 14 23 1009.8 - 17.0
13/09:00pm 24.1 22.5 19.2 74 3.1 S 26 37 14 20 1009.7 1009.7 17.0
13/08:30pm 24.1 22.5 19.2 74 3.1 S 26 37 14 20 1009.8 - 17.0
13/08:07pm 24.4 22.0 19.0 72 3.4 S 30 50 16 27 1009.8 - 17.0
13/08:00pm 24.6 22.2 19.2 72 3.5 SSE 30 41 16 22 1009.8 - 17.0
13/07:30pm 24.7 22.3 19.1 71 3.6 SSE 30 44 16 24 1009.6 - 17.0
13/07:18pm 24.8 22.0 19.0 70 3.7 SSE 32 50 17 27 1009.5 - 17.0
13/07:00pm 24.7 22.5 19.5 73 3.3 SSE 30 39 16 21 1009.4 - 17.0
13/06:30pm 24.8 22.1 18.5 68 4.0 SSE 30 43 16 23 1008.9 - 17.0
13/06:00pm 25.0 22.9 18.9 69 3.9 S 28 39 15 21 1008.6 1008.6 17.0
13/05:30pm 25.3 23.3 19.2 69 3.9 SSE 28 43 15 23 1008.5 - 17.0
13/05:00pm 25.4 22.5 18.8 67 4.2 SSE 32 43 17 23 1008.4 - 17.0
13/04:30pm 25.4 23.2 19.5 70 3.8 SSE 30 41 16 22 1008.5 - 17.0
13/04:00pm 25.7 23.2 19.8 70 3.8 SSE 32 44 17 24 1008.6 - 17.0
13/03:30pm 25.2 23.3 20.2 74 3.3 SSE 30 44 16 24 1008.6 - 17.0
13/03:00pm 24.3 22.4 21.0 82 2.2 SSE 32 44 17 24 1008.5 1008.5 17.0
13/02:30pm 23.1 23.3 22.1 94 0.7 S 24 33 13 18 1008.5 - 16.8
13/02:03pm 23.1 24.1 22.1 94 0.7 S 20 30 11 16 1008.6 - 16.2
13/02:00pm 22.8 23.6 21.8 94 0.7 S 20 30 11 16 1008.6 - 16.2
13/01:57pm 22.9 23.9 22.1 95 0.5 SSW 20 28 11 15 1008.6 - 16.2
13/01:42pm 22.5 24.2 21.7 95 0.5 S 15 20 8 11 1009.0 - 16.0
13/01:41pm 22.5 23.8 21.7 95 0.5 S 17 20 9 11 1009.0 - 16.0
13/01:30pm 22.5 22.9 21.7 95 0.5 SSW 22 32 12 17 1009.0 - 14.8
13/01:00pm 22.2 21.3 21.4 95 0.5 S 28 41 15 22 1009.3 - 14.2
13/12:59pm 22.3 21.3 21.3 94 0.7 S 28 41 15 22 1009.4 - 14.0
13/12:52pm 22.2 22.1 21.4 95 0.5 S 24 33 13 18 1009.4 - 14.0
13/12:35pm 22.6 20.8 21.6 94 0.7 S 33 46 18 25 1009.6 - 12.0
13/12:30pm 22.9 21.4 21.7 93 0.8 S 32 43 17 23 1009.6 - 10.6
13/12:15pm 22.9 21.5 21.9 94 0.7 S 32 46 17 25 1009.6 - 10.6
13/12:00pm 22.3 22.5 21.3 94 0.7 S 22 33 12 18 1009.8 1009.8 10.4
13/11:55am 22.5 22.9 21.7 95 0.5 S 22 30 12 16 1010.0 - 9.6
13/11:30am 22.3 22.5 21.3 94 0.7 S 22 32 12 17 1010.3 - 7.6
13/11:28am 22.2 22.3 21.2 94 0.7 S 22 32 12 17 1010.4 - 7.6
13/11:26am 22.3 22.5 21.3 94 0.7 S 22 26 12 14 1010.4 - 7.4
13/11:06am 22.2 20.6 20.8 92 0.9 S 30 39 16 21 1010.6 - 6.2
13/11:00am 22.4 20.7 20.5 89 1.2 S 30 43 16 23 1010.6 - 4.2
13/10:58am 22.7 21.0 20.6 88 1.4 S 30 43 16 23 1010.5 - 2.2
13/10:54am 23.3 21.0 20.2 83 2.0 S 32 43 17 23 1010.4 - 0.6
13/10:30am 25.7 23.5 20.7 74 3.3 S 33 48 18 26 1009.9 - 0.2
13/10:06am 24.7 22.6 19.8 74 3.2 S 30 50 16 27 1010.2 - 0.2
13/10:00am 24.7 22.8 21.4 82 2.2 S 33 46 18 25 1010.1 - 0.2
13/09:30am 24.8 23.4 19.6 73 3.3 S 26 35 14 19 1010.4 - 0.0
13/09:00am 23.5 22.2 19.8 80 2.4 S 26 39 14 21 1010.6 1010.6 0.4
13/08:30am 23.2 21.9 19.8 81 2.2 S 26 33 14 18 1010.5 - 0.4
13/08:00am 22.5 20.8 19.7 84 1.8 S 28 39 15 21 1010.7 - 0.4
13/07:30am 22.7 20.9 18.7 78 2.5 S 26 39 14 21 1010.5 - 0.0
13/07:00am 23.1 21.5 18.4 75 3.0 S 24 33 13 18 1010.1 - 0.0
13/06:30am 22.6 21.4 18.4 77 2.6 SSW 22 30 12 16 1009.9 - 0.0
13/06:00am 22.1 20.8 18.1 78 2.5 SSW 22 32 12 17 1009.5 1009.5 0.0
13/05:30am 21.9 21.1 18.1 79 2.4 S 19 26 10 14 1009.4 - 0.0
13/05:00am 22.0 21.0 18.0 78 2.5 S 20 32 11 17 1009.0 - 0.0
13/04:30am 21.8 20.0 17.8 78 2.5 SSW 24 41 13 22 1008.9 - 0.0
13/04:00am 21.9 20.1 17.9 78 2.5 S 24 35 13 19 1008.8 - 0.0
13/03:30am 22.0 21.1 18.2 79 2.4 S 20 30 11 16 1009.1 - 0.0
13/03:00am 21.6 20.7 18.2 81 2.1 S 20 32 11 17 1009.3 1009.3 0.0
13/02:30am 22.6 21.3 18.2 76 2.8 S 22 30 12 16 1009.5 - 0.0
13/02:00am 22.7 21.9 18.5 77 2.6 S 20 28 11 15 1009.8 - 0.0
13/01:30am 22.9 22.3 18.4 76 2.8 S 19 28 10 15 1009.9 - 0.0
13/01:00am 23.7 23.0 18.6 73 3.2 SSW 20 33 11 18 1010.3 - 0.0
13/12:30am 24.5 22.8 18.9 71 3.6 SSE 26 39 14 21 1010.7 - 0.0
13/12:00am 24.6 22.4 18.8 70 3.7 SSE 28 41 15 22 1010.7 1010.7 0.0
 
Date/Time
EST
Tmp

°C
App
Tmp
°C
Dew
Point
°C
Rel
Hum
%
Delta-T

°C
Wind Press
QNH
hPa
Press
MSL
hPa
Rain
since
9 am
mm
Dir
 
Spd
km/h
Gust
km/h
Spd
kts
Gust
kts
12/11:44pm 24.7 22.6 18.9 70 3.7 SSE 28 46 15 25 1010.9 - 0.0
12/11:30pm 24.5 22.2 18.4 69 3.9 S 28 39 15 21 1011.0 - 0.0
12/11:00pm 24.8 22.0 18.3 67 4.1 SSE 30 41 16 22 1011.4 - 0.0
12/10:30pm 24.8 22.2 18.7 69 3.9 SSE 30 39 16 21 1011.8 - 0.0
12/10:00pm 24.9 22.8 19.0 69 3.8 SSE 28 43 15 23 1012.0 - 0.0
12/09:30pm 24.6 23.8 19.2 72 3.5 SSE 22 35 12 19 1012.4 - 0.0
12/09:00pm 24.6 22.5 19.0 71 3.6 SSE 28 39 15 21 1012.2 1012.2 0.0
12/08:30pm 24.7 22.8 19.3 72 3.5 SSE 28 39 15 21 1012.1 - 0.0
12/08:00pm 24.7 22.8 19.3 72 3.5 SSE 28 41 15 22 1012.2 - 0.0
12/07:30pm 25.0 23.3 18.9 69 3.9 SSE 26 39 14 21 1012.0 - 0.0
12/07:00pm 25.1 23.1 19.2 70 3.8 SSE 28 37 15 20 1011.7 - 0.0
12/06:30pm 25.3 23.4 18.5 66 4.3 SSE 26 37 14 20 1011.7 - 0.0
12/06:00pm 25.7 22.9 18.1 63 4.8 SSE 30 41 16 22 1011.5 1011.5 0.0
12/05:30pm 26.3 23.6 18.4 61 5.0 SSE 30 46 16 25 1011.1 - 0.0
12/05:24pm 26.5 24.0 18.1 60 5.3 SSE 28 46 15 25 1011.2 - 0.0
12/05:00pm 26.8 24.3 18.9 62 5.1 SE 30 39 16 21 1011.2 - 0.0
12/04:30pm 26.8 23.9 19.2 63 4.9 SE 33 44 18 24 1010.9 - 0.0
12/04:00pm 27.7 25.1 18.7 58 5.8 SE 30 43 16 23 1010.8 - 0.0
12/03:30pm 28.0 24.7 18.4 56 6.1 SE 33 44 18 24 1010.7 - 0.0
12/03:00pm 27.9 24.6 18.3 56 6.1 SE 33 46 18 25 1010.9 1010.9 0.0
12/02:30pm 28.8 26.4 19.1 55 6.3 SE 30 43 16 23 1011.0 - 0.0
12/02:00pm 27.9 24.2 18.3 56 6.1 SE 35 46 19 25 1011.1 - 0.0
12/01:30pm 29.4 26.8 20.0 57 6.2 SE 33 43 18 23 1011.3 - 0.0
12/01:00pm 28.8 25.2 18.6 54 6.6 SE 35 44 19 24 1011.4 - 0.0
12/12:30pm 28.6 25.6 19.0 56 6.2 SE 33 44 18 24 1011.4 - 0.0
12/12:00pm 29.5 27.2 20.6 58 5.9 SE 33 44 18 24 1011.6 1011.6 0.0
12/11:30am 29.1 27.5 21.6 64 5.0 SE 32 43 17 23 1011.8 - 0.0
12/11:00am 28.7 26.7 19.9 59 5.8 SE 30 41 16 22 1011.9 - 0.0
12/10:30am 25.8 24.6 20.1 71 3.7 SE 26 37 14 20 1012.2 - 0.0
12/10:00am 27.9 27.2 21.0 66 4.6 SE 26 37 14 20 1012.3 - 0.0
12/09:30am 26.3 25.3 20.4 70 3.9 SSE 26 37 14 20 1012.3 - 0.0
12/09:00am 26.8 25.6 20.9 70 3.9 SSE 28 35 15 19 1012.3 1012.3 0.6
12/08:30am 24.8 25.2 19.8 74 3.2 S 17 22 9 12 1012.3 - 0.6
12/08:00am 23.7 22.9 19.2 76 2.9 S 22 32 12 17 1012.4 - 0.6
12/07:30am 23.1 23.1 19.7 81 2.2 S 19 26 10 14 1012.3 - 0.6
12/07:00am 22.8 22.2 19.8 83 1.9 S 22 32 12 17 1012.2 - 0.6
12/06:30am 21.9 21.9 19.8 88 1.3 S 19 26 10 14 1012.0 - 0.6
12/06:00am 21.5 21.6 19.2 87 1.5 SSW 17 26 9 14 1011.8 1011.8 0.6
12/05:30am 21.8 21.1 19.4 86 1.5 S 22 30 12 16 1011.5 - 0.6
12/05:00am 21.9 22.0 19.1 84 1.8 SSW 17 22 9 12 1011.5 - 0.6
12/04:30am 21.9 21.6 19.1 84 1.8 S 19 24 10 13 1011.2 - 0.6
12/04:00am 22.0 22.5 19.2 84 1.8 S 15 20 8 11 1011.1 - 0.6
12/03:30am 22.2 22.4 19.4 84 1.8 SSW 17 22 9 12 1011.1 - 0.6
12/03:00am 22.2 23.5 19.4 84 1.8 SSW 11 15 6 8 1011.3 1011.3 0.6
12/02:30am 22.8 23.3 19.2 80 2.3 S 15 24 8 13 1011.2 - 0.6
12/02:00am 22.5 23.7 19.1 81 2.2 SSW 11 15 6 8 1011.4 - 0.6
12/01:30am 23.2 23.8 19.4 79 2.4 S 15 26 8 14 1011.5 - 0.6
12/01:00am 23.6 24.8 19.1 76 2.9 S 11 19 6 10 1011.6 - 0.6
12/12:30am 24.2 24.1 19.5 75 3.0 SSE 19 26 10 14 1011.7 - 0.6
12/12:00am 24.6 23.6 19.7 74 3.2 SE 24 32 13 17 1011.9 1011.9 0.6
 
Date/Time
EST
Tmp

°C
App
Tmp
°C
Dew
Point
°C
Rel
Hum
%
Delta-T

°C
Wind Press
QNH
hPa
Press
MSL
hPa
Rain
since
9 am
mm
Dir
 
Spd
km/h
Gust
km/h
Spd
kts
Gust
kts
11/11:30pm 24.6 23.1 18.5 69 3.9 SE 24 35 13 19 1012.1 - 0.6
11/11:00pm 24.5 23.7 19.3 73 3.3 SSE 22 30 12 16 1012.3 - 0.6
11/10:30pm 24.4 23.1 19.0 72 3.4 SE 24 33 13 18 1012.5 - 0.6
11/10:00pm 24.5 23.2 19.1 72 3.4 SE 24 33 13 18 1012.7 - 0.6
11/09:30pm 24.6 22.8 18.8 70 3.7 SE 26 35 14 19 1012.7 - 0.6
11/09:00pm 24.8 23.0 18.7 69 3.9 SE 26 37 14 20 1012.7 1012.7 0.6
11/08:30pm 24.8 23.2 19.2 71 3.6 SE 26 35 14 19 1012.7 - 0.6
11/08:00pm 24.7 22.8 18.6 69 3.9 SE 26 33 14 18 1012.6 - 0.6
11/07:30pm 24.8 24.1 19.6 73 3.3 SE 22 33 12 18 1012.5 - 0.6
11/07:00pm 24.9 23.3 19.3 71 3.6 SE 26 35 14 19 1012.1 - 0.6
11/06:30pm 25.0 23.4 19.1 70 3.8 SE 26 35 14 19 1011.9 - 0.6
11/06:00pm 25.4 23.8 19.3 69 3.9 SE 26 35 14 19 1011.5 1011.5 0.6
11/05:30pm 25.9 24.3 20.0 70 3.8 SE 28 35 15 19 1011.2 - 0.6
11/05:00pm 26.2 24.5 19.8 68 4.2 SE 28 39 15 21 1011.0 - 0.6
11/04:30pm 25.8 24.2 20.1 71 3.7 SE 28 39 15 21 1010.6 - 0.6
11/04:00pm 25.5 25.8 20.5 74 3.3 SSE 19 30 10 16 1010.6 - 0.6
11/03:30pm 24.2 22.9 19.1 73 3.3 SSE 24 43 13 23 1010.8 - 0.6
11/03:00pm 25.2 23.7 18.6 67 4.2 SSE 24 32 13 17 1010.8 1010.8 0.6
11/02:30pm 25.5 24.2 19.9 71 3.6 SE 26 35 14 19 1011.2 - 0.6

Latest Capital City Observations: Canberra | Sydney | Melbourne | Brisbane | Adelaide | Perth | Hobart | Darwin

Other Formats:

Comma delimited format used in spreadsheet applications
http://www.bom.gov.au/fwo/IDQ60901/IDQ60901.94569.axf

JavaScript Object Notation format (JSON) in row-major order
http://www.bom.gov.au/fwo/IDQ60901/IDQ60901.94569.json